sensor_id;sensor_type;location;lat;lon;timestamp;pressure;altitude;pressure_sealevel;temperature;humidity
3444;BME280;1736;52.068;6.968;2023-05-03T00:01:30;102341.59;;;5.26;81.76
3444;BME280;1736;52.068;6.968;2023-05-03T00:03:57;102353.06;;;5.25;81.78
3444;BME280;1736;52.068;6.968;2023-05-03T00:06:23;102357.50;;;5.23;81.94
3444;BME280;1736;52.068;6.968;2023-05-03T00:08:51;102352.28;;;5.22;81.93
3444;BME280;1736;52.068;6.968;2023-05-03T00:11:19;102355.94;;;5.18;81.70
3444;BME280;1736;52.068;6.968;2023-05-03T00:13:46;102368.72;;;5.28;81.69
3444;BME280;1736;52.068;6.968;2023-05-03T00:16:12;102364.66;;;5.20;81.91
3444;BME280;1736;52.068;6.968;2023-05-03T00:18:39;102366.34;;;5.21;81.86
3444;BME280;1736;52.068;6.968;2023-05-03T00:21:06;102367.31;;;5.18;82.43
3444;BME280;1736;52.068;6.968;2023-05-03T00:23:32;102372.03;;;5.09;82.66
3444;BME280;1736;52.068;6.968;2023-05-03T00:25:59;102370.75;;;4.96;83.09
3444;BME280;1736;52.068;6.968;2023-05-03T00:28:26;102371.38;;;4.78;83.58
3444;BME280;1736;52.068;6.968;2023-05-03T00:30:53;102375.97;;;4.71;83.92
3444;BME280;1736;52.068;6.968;2023-05-03T00:33:19;102367.22;;;4.71;84.44
3444;BME280;1736;52.068;6.968;2023-05-03T00:35:46;102369.66;;;4.77;84.27
3444;BME280;1736;52.068;6.968;2023-05-03T00:38:13;102364.69;;;4.68;84.42
3444;BME280;1736;52.068;6.968;2023-05-03T00:40:39;102377.84;;;4.68;84.48
3444;BME280;1736;52.068;6.968;2023-05-03T00:43:06;102365.78;;;4.61;85.03
3444;BME280;1736;52.068;6.968;2023-05-03T00:45:34;102368.56;;;4.58;85.56
3444;BME280;1736;52.068;6.968;2023-05-03T00:48:00;102364.38;;;4.51;85.82
3444;BME280;1736;52.068;6.968;2023-05-03T00:50:27;102367.81;;;4.53;86.12
3444;BME280;1736;52.068;6.968;2023-05-03T00:52:54;102372.44;;;4.45;85.96
3444;BME280;1736;52.068;6.968;2023-05-03T00:55:21;102375.09;;;4.45;86.05
3444;BME280;1736;52.068;6.968;2023-05-03T00:57:48;102373.84;;;4.29;85.72
3444;BME280;1736;52.068;6.968;2023-05-03T01:00:15;102376.38;;;4.32;86.39
3444;BME280;1736;52.068;6.968;2023-05-03T01:02:43;102374.13;;;4.20;86.94
3444;BME280;1736;52.068;6.968;2023-05-03T01:05:10;102378.56;;;4.19;87.30
3444;BME280;1736;52.068;6.968;2023-05-03T01:07:47;102375.13;;;4.16;87.74
3444;BME280;1736;52.068;6.968;2023-05-03T01:10:22;102373.56;;;4.10;88.02
3444;BME280;1736;52.068;6.968;2023-05-03T01:12:55;102371.88;;;4.08;88.16
3444;BME280;1736;52.068;6.968;2023-05-03T01:15:38;102374.47;;;4.09;88.58
3444;BME280;1736;52.068;6.968;2023-05-03T01:18:10;102363.97;;;4.09;88.49
3444;BME280;1736;52.068;6.968;2023-05-03T01:20:41;102374.50;;;4.08;89.16
3444;BME280;1736;52.068;6.968;2023-05-03T01:23:10;102388.56;;;4.07;89.23
3444;BME280;1736;52.068;6.968;2023-05-03T01:25:41;102380.75;;;4.04;88.80
3444;BME280;1736;52.068;6.968;2023-05-03T01:28:07;102386.06;;;4.02;88.69
3444;BME280;1736;52.068;6.968;2023-05-03T01:30:35;102383.44;;;4.02;89.10
3444;BME280;1736;52.068;6.968;2023-05-03T01:33:09;102372.25;;;3.96;89.75
3444;BME280;1736;52.068;6.968;2023-05-03T01:35:40;102372.25;;;3.96;89.54
3444;BME280;1736;52.068;6.968;2023-05-03T01:38:07;102382.88;;;3.93;89.85
3444;BME280;1736;52.068;6.968;2023-05-03T01:40:38;102362.41;;;4.02;89.23
3444;BME280;1736;52.068;6.968;2023-05-03T01:43:08;102365.28;;;3.95;89.41
3444;BME280;1736;52.068;6.968;2023-05-03T01:45:36;102363.75;;;3.88;90.09
3444;BME280;1736;52.068;6.968;2023-05-03T01:48:08;102363.75;;;3.88;90.00
3444;BME280;1736;52.068;6.968;2023-05-03T01:50:34;102368.16;;;3.87;90.14
3444;BME280;1736;52.068;6.968;2023-05-03T01:53:01;102370.72;;;3.89;89.89
3444;BME280;1736;52.068;6.968;2023-05-03T01:55:27;102382.16;;;3.86;90.68
3444;BME280;1736;52.068;6.968;2023-05-03T01:57:54;102378.78;;;3.83;90.58
3444;BME280;1736;52.068;6.968;2023-05-03T02:00:22;102386.75;;;3.80;90.79
3444;BME280;1736;52.068;6.968;2023-05-03T02:02:49;102387.69;;;3.77;90.56
3444;BME280;1736;52.068;6.968;2023-05-03T02:05:15;102393.59;;;3.85;90.33
3444;BME280;1736;52.068;6.968;2023-05-03T02:07:42;102404.00;;;3.88;90.40
3444;BME280;1736;52.068;6.968;2023-05-03T02:10:08;102401.38;;;3.88;90.61
3444;BME280;1736;52.068;6.968;2023-05-03T02:12:38;102411.75;;;3.93;89.83
3444;BME280;1736;52.068;6.968;2023-05-03T02:15:06;102399.09;;;3.76;90.49
3444;BME280;1736;52.068;6.968;2023-05-03T02:17:34;102413.34;;;3.68;91.09
3444;BME280;1736;52.068;6.968;2023-05-03T02:20:01;102417.94;;;3.60;91.73
3444;BME280;1736;52.068;6.968;2023-05-03T02:22:30;102415.28;;;3.61;92.41
3444;BME280;1736;52.068;6.968;2023-05-03T02:24:57;102411.88;;;3.58;92.73
3444;BME280;1736;52.068;6.968;2023-05-03T02:27:23;102411.16;;;3.53;92.65
3444;BME280;1736;52.068;6.968;2023-05-03T02:29:50;102413.09;;;3.46;92.66
3444;BME280;1736;52.068;6.968;2023-05-03T02:32:17;102412.41;;;3.40;92.98
3444;BME280;1736;52.068;6.968;2023-05-03T02:34:52;102414.19;;;3.38;93.34
3444;BME280;1736;52.068;6.968;2023-05-03T02:37:19;102406.50;;;3.32;93.64
3444;BME280;1736;52.068;6.968;2023-05-03T02:39:46;102415.25;;;3.31;93.60
3444;BME280;1736;52.068;6.968;2023-05-03T02:42:12;102410.16;;;3.26;94.02
3444;BME280;1736;52.068;6.968;2023-05-03T02:44:39;102400.59;;;3.24;94.42
3444;BME280;1736;52.068;6.968;2023-05-03T02:47:05;102399.72;;;3.23;94.82
3444;BME280;1736;52.068;6.968;2023-05-03T02:49:32;102398.78;;;3.26;94.27
3444;BME280;1736;52.068;6.968;2023-05-03T02:51:59;102385.78;;;3.21;94.55
3444;BME280;1736;52.068;6.968;2023-05-03T02:54:26;102393.41;;;3.30;93.74
3444;BME280;1736;52.068;6.968;2023-05-03T02:56:52;102385.72;;;3.23;94.36
3444;BME280;1736;52.068;6.968;2023-05-03T02:59:19;102381.66;;;3.13;94.29
3444;BME280;1736;52.068;6.968;2023-05-03T03:01:45;102373.75;;;3.14;94.33
3444;BME280;1736;52.068;6.968;2023-05-03T03:04:12;102378.00;;;3.18;94.04
3444;BME280;1736;52.068;6.968;2023-05-03T03:06:39;102378.94;;;3.16;94.73
3444;BME280;1736;52.068;6.968;2023-05-03T03:09:07;102379.13;;;3.08;94.95
3444;BME280;1736;52.068;6.968;2023-05-03T03:11:34;102379.09;;;3.10;94.35
3444;BME280;1736;52.068;6.968;2023-05-03T03:14:00;102374.69;;;3.12;95.36
3444;BME280;1736;52.068;6.968;2023-05-03T03:16:27;102364.94;;;3.17;95.44
3444;BME280;1736;52.068;6.968;2023-05-03T03:18:54;102371.16;;;3.13;95.59
3444;BME280;1736;52.068;6.968;2023-05-03T03:21:20;102367.81;;;3.08;95.30
3444;BME280;1736;52.068;6.968;2023-05-03T03:23:47;102366.22;;;3.01;94.91
3444;BME280;1736;52.068;6.968;2023-05-03T03:26:15;102364.59;;;2.97;95.13
3444;BME280;1736;52.068;6.968;2023-05-03T03:28:41;102363.72;;;2.96;95.72
3444;BME280;1736;52.068;6.968;2023-05-03T03:31:08;102357.78;;;2.90;95.35
3444;BME280;1736;52.068;6.968;2023-05-03T03:33:34;102350.97;;;2.83;96.10
3444;BME280;1736;52.068;6.968;2023-05-03T03:36:01;102356.13;;;2.86;96.20
3444;BME280;1736;52.068;6.968;2023-05-03T03:38:27;102361.38;;;2.86;95.87
3444;BME280;1736;52.068;6.968;2023-05-03T03:40:54;102362.34;;;2.82;96.21
3444;BME280;1736;52.068;6.968;2023-05-03T03:43:22;102351.72;;;2.88;95.84
3444;BME280;1736;52.068;6.968;2023-05-03T03:45:48;102353.59;;;2.83;96.10
3444;BME280;1736;52.068;6.968;2023-05-03T03:48:15;102350.81;;;2.89;96.36
3444;BME280;1736;52.068;6.968;2023-05-03T03:50:41;102348.28;;;2.84;96.14
3444;BME280;1736;52.068;6.968;2023-05-03T03:53:08;102342.28;;;2.81;95.74
3444;BME280;1736;52.068;6.968;2023-05-03T03:55:35;102339.00;;;2.73;96.48
3444;BME280;1736;52.068;6.968;2023-05-03T03:58:03;102344.25;;;2.73;96.95
3444;BME280;1736;52.068;6.968;2023-05-03T04:00:30;102339.84;;;2.75;96.90
3444;BME280;1736;52.068;6.968;2023-05-03T04:02:57;102330.22;;;2.74;97.72
3444;BME280;1736;52.068;6.968;2023-05-03T04:05:24;102331.09;;;2.74;97.25
3444;BME280;1736;52.068;6.968;2023-05-03T04:07:50;102334.47;;;2.78;97.85
3444;BME280;1736;52.068;6.968;2023-05-03T04:10:17;102344.91;;;2.81;97.62
3444;BME280;1736;52.068;6.968;2023-05-03T04:12:43;102341.38;;;2.82;97.83
3444;BME280;1736;52.068;6.968;2023-05-03T04:15:12;102340.41;;;2.86;97.75
3444;BME280;1736;52.068;6.968;2023-05-03T04:17:40;102339.34;;;2.93;97.65
3444;BME280;1736;52.068;6.968;2023-05-03T04:20:07;102342.13;;;2.87;97.07
3444;BME280;1736;52.068;6.968;2023-05-03T04:22:35;102345.50;;;2.92;96.95
3444;BME280;1736;52.068;6.968;2023-05-03T04:25:04;102349.84;;;2.93;96.77
3444;BME280;1736;52.068;6.968;2023-05-03T04:27:32;102351.22;;;3.06;97.43
3444;BME280;1736;52.068;6.968;2023-05-03T04:29:59;102355.00;;;3.28;96.06
3444;BME280;1736;52.068;6.968;2023-05-03T04:32:26;102359.75;;;3.14;95.75
3444;BME280;1736;52.068;6.968;2023-05-03T04:34:54;102373.81;;;3.11;96.02
3444;BME280;1736;52.068;6.968;2023-05-03T04:37:21;102384.47;;;3.05;96.98
3444;BME280;1736;52.068;6.968;2023-05-03T04:39:48;102384.56;;;3.02;97.36
3444;BME280;1736;52.068;6.968;2023-05-03T04:42:14;102385.31;;;3.06;97.45
3444;BME280;1736;52.068;6.968;2023-05-03T04:44:41;102391.44;;;3.06;97.38
3444;BME280;1736;52.068;6.968;2023-05-03T04:47:08;102384.34;;;3.10;97.23
3444;BME280;1736;52.068;6.968;2023-05-03T04:49:35;102394.81;;;3.11;97.33
3444;BME280;1736;52.068;6.968;2023-05-03T04:52:03;102396.50;;;3.12;97.72
3444;BME280;1736;52.068;6.968;2023-05-03T04:54:30;102397.31;;;3.16;97.38
3444;BME280;1736;52.068;6.968;2023-05-03T04:56:56;102402.41;;;3.20;97.37
3444;BME280;1736;52.068;6.968;2023-05-03T04:59:23;102412.19;;;3.47;97.08
3444;BME280;1736;52.068;6.968;2023-05-03T05:01:49;102411.50;;;3.71;95.99
3444;BME280;1736;52.068;6.968;2023-05-03T05:04:16;102419.06;;;3.82;95.04
3444;BME280;1736;52.068;6.968;2023-05-03T05:06:42;102414.38;;;3.93;94.34
3444;BME280;1736;52.068;6.968;2023-05-03T05:09:20;102418.81;;;4.20;93.51
3444;BME280;1736;52.068;6.968;2023-05-03T05:11:47;102416.44;;;4.40;92.19
3444;BME280;1736;52.068;6.968;2023-05-03T05:14:14;102428.84;;;4.62;91.05
3444;BME280;1736;52.068;6.968;2023-05-03T05:16:41;102424.88;;;4.77;89.70
3444;BME280;1736;52.068;6.968;2023-05-03T05:19:07;102433.91;;;4.96;88.14
3444;BME280;1736;52.068;6.968;2023-05-03T05:21:34;102429.25;;;5.04;87.40
3444;BME280;1736;52.068;6.968;2023-05-03T05:24:00;102429.19;;;5.30;86.38
3444;BME280;1736;52.068;6.968;2023-05-03T05:26:28;102425.53;;;5.60;85.66
3444;BME280;1736;52.068;6.968;2023-05-03T05:28:55;102426.72;;;5.75;84.22
3444;BME280;1736;52.068;6.968;2023-05-03T05:31:22;102434.97;;;6.13;83.25
3444;BME280;1736;52.068;6.968;2023-05-03T05:33:49;102434.16;;;6.34;82.18
3444;BME280;1736;52.068;6.968;2023-05-03T05:36:16;102433.56;;;6.49;79.96
3444;BME280;1736;52.068;6.968;2023-05-03T05:38:42;102445.34;;;6.84;78.11
3444;BME280;1736;52.068;6.968;2023-05-03T05:41:09;102440.78;;;6.87;76.60
3444;BME280;1736;52.068;6.968;2023-05-03T05:43:37;102446.06;;;6.87;77.52
3444;BME280;1736;52.068;6.968;2023-05-03T05:46:04;102450.28;;;7.13;76.55
3444;BME280;1736;52.068;6.968;2023-05-03T05:48:30;102453.50;;;6.99;77.71
3444;BME280;1736;52.068;6.968;2023-05-03T05:50:57;102460.78;;;7.54;76.25
3444;BME280;1736;52.068;6.968;2023-05-03T05:53:23;102456.56;;;7.70;73.93
3444;BME280;1736;52.068;6.968;2023-05-03T05:55:50;102461.78;;;8.10;73.29
3444;BME280;1736;52.068;6.968;2023-05-03T05:58:16;102462.97;;;8.23;69.93
3444;BME280;1736;52.068;6.968;2023-05-03T06:00:44;102457.28;;;8.51;70.31
3444;BME280;1736;52.068;6.968;2023-05-03T06:03:13;102468.56;;;8.54;69.89
3444;BME280;1736;52.068;6.968;2023-05-03T06:05:39;102462.38;;;8.72;68.13
3444;BME280;1736;52.068;6.968;2023-05-03T06:08:06;102464.94;;;8.92;66.98
3444;BME280;1736;52.068;6.968;2023-05-03T06:10:33;102470.28;;;9.26;65.23
3444;BME280;1736;52.068;6.968;2023-05-03T06:13:00;102461.19;;;8.96;64.93
3444;BME280;1736;52.068;6.968;2023-05-03T06:15:27;102466.69;;;9.10;65.44
3444;BME280;1736;52.068;6.968;2023-05-03T06:17:55;102453.38;;;9.29;64.36
3444;BME280;1736;52.068;6.968;2023-05-03T06:20:21;102457.59;;;9.33;64.23
3444;BME280;1736;52.068;6.968;2023-05-03T06:22:49;102463.22;;;9.44;63.35
3444;BME280;1736;52.068;6.968;2023-05-03T06:25:16;102467.88;;;9.39;63.34
3444;BME280;1736;52.068;6.968;2023-05-03T06:27:43;102462.16;;;9.80;61.31
3444;BME280;1736;52.068;6.968;2023-05-03T06:30:10;102459.38;;;9.66;60.54
3444;BME280;1736;52.068;6.968;2023-05-03T06:32:37;102460.47;;;9.62;60.69
3444;BME280;1736;52.068;6.968;2023-05-03T06:35:07;102455.81;;;9.50;60.54
3444;BME280;1736;52.068;6.968;2023-05-03T06:37:34;102460.56;;;9.44;59.91
3444;BME280;1736;52.068;6.968;2023-05-03T06:40:00;102468.25;;;9.65;59.99
3444;BME280;1736;52.068;6.968;2023-05-03T06:42:27;102467.78;;;9.40;58.50
3444;BME280;1736;52.068;6.968;2023-05-03T06:44:53;102467.72;;;9.25;60.01
3444;BME280;1736;52.068;6.968;2023-05-03T06:47:20;102469.50;;;9.75;58.06
3444;BME280;1736;52.068;6.968;2023-05-03T06:49:46;102467.47;;;9.63;57.89
3444;BME280;1736;52.068;6.968;2023-05-03T06:52:14;102477.06;;;9.66;57.98
3444;BME280;1736;52.068;6.968;2023-05-03T06:54:41;102469.91;;;10.00;56.88
3444;BME280;1736;52.068;6.968;2023-05-03T06:57:07;102478.56;;;10.21;55.66
3444;BME280;1736;52.068;6.968;2023-05-03T06:59:34;102470.69;;;10.19;55.90
3444;BME280;1736;52.068;6.968;2023-05-03T07:02:01;102472.69;;;10.31;55.00
3444;BME280;1736;52.068;6.968;2023-05-03T07:04:28;102482.31;;;10.00;57.35
3444;BME280;1736;52.068;6.968;2023-05-03T07:06:55;102471.34;;;10.07;55.57
3444;BME280;1736;52.068;6.968;2023-05-03T07:09:22;102471.22;;;10.26;55.78
3444;BME280;1736;52.068;6.968;2023-05-03T07:11:49;102463.72;;;9.84;55.76
3444;BME280;1736;52.068;6.968;2023-05-03T07:14:16;102462.59;;;10.05;55.50
3444;BME280;1736;52.068;6.968;2023-05-03T07:16:42;102453.75;;;10.22;55.84
3444;BME280;1736;52.068;6.968;2023-05-03T07:19:09;102453.47;;;10.26;54.56
3444;BME280;1736;52.068;6.968;2023-05-03T07:21:35;102446.19;;;10.14;55.60
3444;BME280;1736;52.068;6.968;2023-05-03T07:24:02;102444.16;;;10.19;55.50
3444;BME280;1736;52.068;6.968;2023-05-03T07:26:30;102442.59;;;10.15;55.50
3444;BME280;1736;52.068;6.968;2023-05-03T07:28:57;102446.56;;;10.39;54.81
3444;BME280;1736;52.068;6.968;2023-05-03T07:31:23;102437.16;;;10.49;55.10
3444;BME280;1736;52.068;6.968;2023-05-03T07:33:50;102436.94;;;10.84;54.05
3444;BME280;1736;52.068;6.968;2023-05-03T07:36:17;102433.47;;;10.83;53.88
3444;BME280;1736;52.068;6.968;2023-05-03T07:38:43;102425.97;;;10.90;52.74
3444;BME280;1736;52.068;6.968;2023-05-03T07:41:10;102436.50;;;11.07;52.85
3444;BME280;1736;52.068;6.968;2023-05-03T07:43:38;102441.09;;;10.74;52.12
3444;BME280;1736;52.068;6.968;2023-05-03T07:46:05;102439.78;;;10.65;52.96
3444;BME280;1736;52.068;6.968;2023-05-03T07:48:31;102428.84;;;10.56;52.37
3444;BME280;1736;52.068;6.968;2023-05-03T07:50:58;102435.59;;;10.61;52.69
3444;BME280;1736;52.068;6.968;2023-05-03T07:53:24;102430.72;;;10.38;51.73
3444;BME280;1736;52.068;6.968;2023-05-03T07:55:52;102431.50;;;10.56;52.65
3444;BME280;1736;52.068;6.968;2023-05-03T07:58:19;102429.44;;;10.61;52.40
3444;BME280;1736;52.068;6.968;2023-05-03T08:00:47;102420.72;;;10.74;52.21
3444;BME280;1736;52.068;6.968;2023-05-03T08:03:14;102428.88;;;11.01;51.65
3444;BME280;1736;52.068;6.968;2023-05-03T08:05:40;102420.06;;;11.00;51.13
3444;BME280;1736;52.068;6.968;2023-05-03T08:08:07;102422.91;;;10.82;51.64
3444;BME280;1736;52.068;6.968;2023-05-03T08:10:34;102429.94;;;10.83;51.77
3444;BME280;1736;52.068;6.968;2023-05-03T08:13:02;102433.66;;;11.10;52.72
3444;BME280;1736;52.068;6.968;2023-05-03T08:15:29;102438.91;;;11.55;49.97
3444;BME280;1736;52.068;6.968;2023-05-03T08:17:57;102436.03;;;11.44;49.73
3444;BME280;1736;52.068;6.968;2023-05-03T08:20:24;102435.84;;;11.47;51.24
3444;BME280;1736;52.068;6.968;2023-05-03T08:22:51;102434.50;;;11.69;50.21
3444;BME280;1736;52.068;6.968;2023-05-03T08:25:18;102430.03;;;11.98;51.28
3444;BME280;1736;52.068;6.968;2023-05-03T08:27:52;102431.19;;;12.08;49.95
3444;BME280;1736;52.068;6.968;2023-05-03T08:30:19;102431.00;;;12.11;48.91
3444;BME280;1736;52.068;6.968;2023-05-03T08:32:47;102424.16;;;11.93;49.64
3444;BME280;1736;52.068;6.968;2023-05-03T08:35:15;102424.13;;;12.21;48.66
3444;BME280;1736;52.068;6.968;2023-05-03T08:37:42;102410.94;;;12.33;48.46
3444;BME280;1736;52.068;6.968;2023-05-03T08:40:10;102403.03;;;12.32;48.30
3444;BME280;1736;52.068;6.968;2023-05-03T08:42:39;102409.31;;;12.17;49.00
3444;BME280;1736;52.068;6.968;2023-05-03T08:45:08;102403.44;;;11.98;49.61
3444;BME280;1736;52.068;6.968;2023-05-03T08:47:35;102403.94;;;12.04;49.56
3444;BME280;1736;52.068;6.968;2023-05-03T08:50:04;102411.22;;;12.01;49.42
3444;BME280;1736;52.068;6.968;2023-05-03T08:52:33;102408.19;;;11.93;49.23
3444;BME280;1736;52.068;6.968;2023-05-03T08:55:00;102408.78;;;11.70;49.99
3444;BME280;1736;52.068;6.968;2023-05-03T08:57:26;102413.41;;;11.94;49.65
3444;BME280;1736;52.068;6.968;2023-05-03T08:59:53;102409.13;;;12.06;48.79
3444;BME280;1736;52.068;6.968;2023-05-03T09:02:25;102400.19;;;12.21;48.62
3444;BME280;1736;52.068;6.968;2023-05-03T09:04:52;102404.13;;;12.42;47.87
3444;BME280;1736;52.068;6.968;2023-05-03T09:07:19;102400.38;;;12.18;49.08
3444;BME280;1736;52.068;6.968;2023-05-03T09:09:47;102396.97;;;12.02;48.71
3444;BME280;1736;52.068;6.968;2023-05-03T09:12:32;102394.13;;;11.63;49.57
3444;BME280;1736;52.068;6.968;2023-05-03T09:14:59;102389.97;;;11.87;49.95
3444;BME280;1736;52.068;6.968;2023-05-03T09:17:26;102389.28;;;11.83;49.20
3444;BME280;1736;52.068;6.968;2023-05-03T09:19:54;102388.91;;;11.89;49.99
3444;BME280;1736;52.068;6.968;2023-05-03T09:22:22;102394.50;;;11.85;48.29
3444;BME280;1736;52.068;6.968;2023-05-03T09:24:51;102406.41;;;11.93;49.81
3444;BME280;1736;52.068;6.968;2023-05-03T09:27:19;102402.78;;;11.94;49.16
3444;BME280;1736;52.068;6.968;2023-05-03T09:29:47;102397.38;;;11.96;50.47
3444;BME280;1736;52.068;6.968;2023-05-03T09:32:13;102401.28;;;12.04;50.25
3444;BME280;1736;52.068;6.968;2023-05-03T09:34:40;102399.69;;;11.58;49.12
3444;BME280;1736;52.068;6.968;2023-05-03T09:37:06;102407.03;;;11.69;50.39
3444;BME280;1736;52.068;6.968;2023-05-03T09:39:33;102397.47;;;11.94;49.82
3444;BME280;1736;52.068;6.968;2023-05-03T09:42:11;102394.31;;;12.02;50.15
3444;BME280;1736;52.068;6.968;2023-05-03T09:44:43;102390.16;;;11.70;50.70
3444;BME280;1736;52.068;6.968;2023-05-03T09:47:13;102382.91;;;11.86;50.57
3444;BME280;1736;52.068;6.968;2023-05-03T09:49:40;102369.31;;;12.18;50.86
3444;BME280;1736;52.068;6.968;2023-05-03T09:52:07;102368.25;;;12.21;48.16
3444;BME280;1736;52.068;6.968;2023-05-03T09:54:34;102367.13;;;11.97;48.45
3444;BME280;1736;52.068;6.968;2023-05-03T09:57:02;102362.19;;;12.05;48.34
3444;BME280;1736;52.068;6.968;2023-05-03T09:59:30;102362.31;;;12.30;49.09
3444;BME280;1736;52.068;6.968;2023-05-03T10:01:58;102364.91;;;12.31;49.34
3444;BME280;1736;52.068;6.968;2023-05-03T10:04:27;102365.16;;;12.41;47.93
3444;BME280;1736;52.068;6.968;2023-05-03T10:06:58;102367.38;;;12.61;48.95
3444;BME280;1736;52.068;6.968;2023-05-03T10:09:30;102372.88;;;12.72;48.16
3444;BME280;1736;52.068;6.968;2023-05-03T10:11:58;102370.56;;;12.92;47.75
3444;BME280;1736;52.068;6.968;2023-05-03T10:14:26;102371.59;;;13.04;48.44
3444;BME280;1736;52.068;6.968;2023-05-03T10:16:57;102372.94;;;12.97;48.23
3444;BME280;1736;52.068;6.968;2023-05-03T10:19:28;102360.22;;;12.88;49.02
3444;BME280;1736;52.068;6.968;2023-05-03T10:22:02;102367.53;;;13.11;48.00
3444;BME280;1736;52.068;6.968;2023-05-03T10:24:29;102368.53;;;12.83;47.11
3444;BME280;1736;52.068;6.968;2023-05-03T10:26:56;102376.22;;;12.61;47.88
3444;BME280;1736;52.068;6.968;2023-05-03T10:29:45;102376.16;;;12.75;47.62
3444;BME280;1736;52.068;6.968;2023-05-03T10:32:35;102359.47;;;12.59;46.66
3444;BME280;1736;52.068;6.968;2023-05-03T10:35:07;102358.38;;;12.49;48.07
3444;BME280;1736;52.068;6.968;2023-05-03T10:37:34;102351.31;;;12.75;48.44
3444;BME280;1736;52.068;6.968;2023-05-03T10:40:10;102355.16;;;12.97;47.58
3444;BME280;1736;52.068;6.968;2023-05-03T10:42:38;102349.16;;;12.94;47.19
3444;BME280;1736;52.068;6.968;2023-05-03T10:45:07;102359.16;;;12.90;48.05
3444;BME280;1736;52.068;6.968;2023-05-03T10:47:35;102349.63;;;12.74;48.57
3444;BME280;1736;52.068;6.968;2023-05-03T10:50:23;102343.06;;;12.53;47.91
3444;BME280;1736;52.068;6.968;2023-05-03T10:52:50;102348.88;;;12.72;47.65
3444;BME280;1736;52.068;6.968;2023-05-03T10:55:18;102346.69;;;12.52;48.44
3444;BME280;1736;52.068;6.968;2023-05-03T10:57:46;102351.47;;;12.86;47.96
3444;BME280;1736;52.068;6.968;2023-05-03T11:00:16;102341.44;;;12.77;47.38
3444;BME280;1736;52.068;6.968;2023-05-03T11:03:02;102337.59;;;12.81;46.97
3444;BME280;1736;52.068;6.968;2023-05-03T11:05:32;102325.25;;;12.92;47.07
3444;BME280;1736;52.068;6.968;2023-05-03T11:08:12;102323.53;;;13.18;46.50
3444;BME280;1736;52.068;6.968;2023-05-03T11:10:42;102326.97;;;13.45;46.99
3444;BME280;1736;52.068;6.968;2023-05-03T11:13:09;102333.88;;;13.35;45.97
3444;BME280;1736;52.068;6.968;2023-05-03T11:15:36;102331.53;;;13.55;46.56
3444;BME280;1736;52.068;6.968;2023-05-03T11:18:05;102329.16;;;13.13;46.10
3444;BME280;1736;52.068;6.968;2023-05-03T11:20:32;102328.22;;;12.75;45.81
3444;BME280;1736;52.068;6.968;2023-05-03T11:22:58;102333.94;;;12.96;46.10
3444;BME280;1736;52.068;6.968;2023-05-03T11:25:26;102339.63;;;13.04;45.99
3444;BME280;1736;52.068;6.968;2023-05-03T11:27:53;102336.59;;;12.96;46.52
3444;BME280;1736;52.068;6.968;2023-05-03T11:30:19;102333.03;;;13.22;45.60
3444;BME280;1736;52.068;6.968;2023-05-03T11:32:46;102331.75;;;13.40;46.34
3444;BME280;1736;52.068;6.968;2023-05-03T11:35:15;102326.09;;;13.57;45.64
3444;BME280;1736;52.068;6.968;2023-05-03T11:37:42;102326.63;;;13.49;45.84
3444;BME280;1736;52.068;6.968;2023-05-03T11:40:13;102323.97;;;13.62;46.68
3444;BME280;1736;52.068;6.968;2023-05-03T11:42:49;102320.13;;;13.41;46.45
3444;BME280;1736;52.068;6.968;2023-05-03T11:45:31;102317.34;;;13.30;46.44
3444;BME280;1736;52.068;6.968;2023-05-03T11:48:04;102321.28;;;13.24;45.57
3444;BME280;1736;52.068;6.968;2023-05-03T11:50:45;102317.03;;;13.22;45.25
3444;BME280;1736;52.068;6.968;2023-05-03T11:53:14;102309.13;;;13.45;45.97
3444;BME280;1736;52.068;6.968;2023-05-03T11:55:42;102320.13;;;13.41;45.99
3444;BME280;1736;52.068;6.968;2023-05-03T11:58:12;102314.03;;;13.51;46.12
3444;BME280;1736;52.068;6.968;2023-05-03T12:00:42;102310.19;;;13.55;45.16
3444;BME280;1736;52.068;6.968;2023-05-03T12:03:09;102304.00;;;13.67;46.33
3444;BME280;1736;52.068;6.968;2023-05-03T12:05:36;102305.91;;;13.78;45.25
3444;BME280;1736;52.068;6.968;2023-05-03T12:08:04;102309.34;;;13.55;44.66
3444;BME280;1736;52.068;6.968;2023-05-03T12:10:31;102309.78;;;13.49;44.55
3444;BME280;1736;52.068;6.968;2023-05-03T12:12:58;102299.94;;;13.62;45.03
3444;BME280;1736;52.068;6.968;2023-05-03T12:15:34;102298.88;;;13.64;44.21
3444;BME280;1736;52.068;6.968;2023-05-03T12:18:05;102303.84;;;13.81;44.81
3444;BME280;1736;52.068;6.968;2023-05-03T12:20:33;102292.88;;;13.73;44.60
3444;BME280;1736;52.068;6.968;2023-05-03T12:23:01;102287.13;;;13.67;44.34
3444;BME280;1736;52.068;6.968;2023-05-03T12:25:30;102287.69;;;13.59;44.80
3444;BME280;1736;52.068;6.968;2023-05-03T12:27:58;102282.47;;;13.45;43.25
3444;BME280;1736;52.068;6.968;2023-05-03T12:30:25;102289.50;;;13.59;44.13
3444;BME280;1736;52.068;6.968;2023-05-03T12:32:52;102284.16;;;13.59;45.34
3444;BME280;1736;52.068;6.968;2023-05-03T12:35:19;102268.94;;;13.84;43.74
3444;BME280;1736;52.068;6.968;2023-05-03T12:37:46;102269.91;;;13.83;43.48
3444;BME280;1736;52.068;6.968;2023-05-03T12:40:13;102276.56;;;13.78;43.63
3444;BME280;1736;52.068;6.968;2023-05-03T12:42:41;102269.44;;;13.66;43.41
3444;BME280;1736;52.068;6.968;2023-05-03T12:45:08;102270.25;;;13.79;43.71
3444;BME280;1736;52.068;6.968;2023-05-03T12:47:41;102264.50;;;13.72;43.89
3444;BME280;1736;52.068;6.968;2023-05-03T12:50:09;102267.00;;;13.86;43.20
3444;BME280;1736;52.068;6.968;2023-05-03T12:52:36;102269.16;;;13.81;44.37
3444;BME280;1736;52.068;6.968;2023-05-03T12:55:03;102258.66;;;14.03;44.85
3444;BME280;1736;52.068;6.968;2023-05-03T12:57:30;102259.56;;;14.15;43.44
3444;BME280;1736;52.068;6.968;2023-05-03T12:59:58;102239.38;;;14.11;44.60
3444;BME280;1736;52.068;6.968;2023-05-03T13:02:25;102246.63;;;14.09;44.92
3444;BME280;1736;52.068;6.968;2023-05-03T13:04:51;102233.59;;;13.93;44.50
3444;BME280;1736;52.068;6.968;2023-05-03T13:07:20;102232.78;;;14.04;45.04
3444;BME280;1736;52.068;6.968;2023-05-03T13:09:49;102237.53;;;14.24;45.62
3444;BME280;1736;52.068;6.968;2023-05-03T13:12:15;102237.84;;;14.19;45.31
3444;BME280;1736;52.068;6.968;2023-05-03T13:14:44;102221.91;;;14.07;44.63
3444;BME280;1736;52.068;6.968;2023-05-03T13:17:13;102207.78;;;14.05;45.27
3444;BME280;1736;52.068;6.968;2023-05-03T13:19:40;102222.28;;;14.26;45.33
3444;BME280;1736;52.068;6.968;2023-05-03T13:22:07;102207.78;;;14.05;44.62